Time;durP1;ratioP1;P1;durP2;ratioP2;P2;SDS_P1;SDS_P2;PMS_P1;PMS_P2;Temp;Humidity;BMP_temperature;BMP_pressure;BME280_temperature;BME280_humidity;BME280_pressure;Samples;Min_cycle;Max_cycle;Signal;HPM_P1;HPM_P2
2024/04/17 00:00:04;;;;;;;;;;;;;;;19.94;47.30;100066.78;2237773;26;6131;-65
2024/04/17 00:01:05;;;;;;;;;;;;;;;19.93;47.13;100065.28;2235199;26;2175;-64
2024/04/17 00:02:07;;;;;;;;;;;;;;;19.93;47.69;100065.28;2236879;26;2245;-64
2024/04/17 00:03:10;;;;;;;;;;;;;;;19.94;47.37;100061.03;2235596;26;2499;-65
2024/04/17 00:04:11;;;;;;;;;;;;;;;19.94;47.56;100058.91;2241227;26;2267;-64
2024/04/17 00:05:13;;;;;;;;;;;;;;;19.94;47.37;100061.75;2236164;26;2277;-64
2024/04/17 00:06:15;;;;;;;;;;;;;;;19.94;47.31;100056.03;2230419;26;2349;-64
2024/04/17 00:07:16;;;;;;;;;;;;;;;19.96;46.95;100056.09;2233602;26;2365;-64
2024/04/17 00:08:18;;;;;;;;;;;;;;;19.95;47.51;100060.38;2234596;26;2365;-64
2024/04/17 00:09:19;;;;;;;;;;;;;;;19.96;46.97;100070.47;2246565;26;2354;-64
2024/04/17 00:10:22;;;;;;;;;;;;;;;19.97;46.95;100074.78;2236897;26;2500;-64
2024/04/17 00:11:23;;;;;;;;;;;;;;;19.98;47.17;100061.91;2241874;26;2266;-64
2024/04/17 00:12:25;;;;;;;;;;;;;;;19.99;46.92;100062.66;2231557;26;2369;-65
2024/04/17 00:13:27;;;;;;;;;;;;;;;19.99;46.93;100059.78;2239851;26;2367;-64
2024/04/17 00:14:28;;;;;;;;;;;;;;;20.00;47.02;100064.88;2229927;26;2298;-64
2024/04/17 00:15:30;;;;;;;;;;;;;;;20.01;47.19;100059.84;2236812;26;2240;-64
2024/04/17 00:16:31;;;;;;;;;;;;;;;20.01;47.22;100066.31;2237406;26;2274;-64
2024/04/17 00:17:33;;;;;;;;;;;;;;;20.02;46.98;100067.81;2237820;26;2410;-64
2024/04/17 00:18:34;;;;;;;;;;;;;;;20.02;46.93;100062.06;2231142;26;2271;-64
2024/04/17 00:19:36;;;;;;;;;;;;;;;20.04;46.61;100065.00;2237975;26;2179;-64
2024/04/17 00:20:38;;;;;;;;;;;;;;;20.04;46.97;100065.00;2237206;26;2202;-64
2024/04/17 00:21:39;;;;;;;;;;;;;;;20.05;46.86;100066.47;2236158;26;2338;-64
2024/04/17 00:22:41;;;;;;;;;;;;;;;20.06;46.94;100067.19;2236005;26;2354;-64
2024/04/17 00:23:42;;;;;;;;;;;;;;;20.05;47.29;100062.88;2236703;26;2258;-65
2024/04/17 00:24:44;;;;;;;;;;;;;;;20.05;46.95;100066.47;2232004;26;2308;-64
2024/04/17 00:25:46;;;;;;;;;;;;;;;20.05;46.97;100066.47;2235667;26;2360;-64
2024/04/17 00:26:47;;;;;;;;;;;;;;;20.05;47.25;100060.72;2238201;26;2051;-64
2024/04/17 00:27:48;;;;;;;;;;;;;;;20.05;46.68;100066.47;2236962;26;2252;-64
2024/04/17 00:28:50;;;;;;;;;;;;;;;20.06;47.13;100058.56;2234792;26;2175;-64
2024/04/17 00:29:51;;;;;;;;;;;;;;;20.06;47.17;100061.44;2239112;26;2196;-64
2024/04/17 00:30:53;;;;;;;;;;;;;;;20.06;47.12;100070.06;2243157;26;5896;-64
2024/04/17 00:31:55;;;;;;;;;;;;;;;20.05;47.37;100066.47;2230913;26;2187;-66
2024/04/17 00:32:56;;;;;;;;;;;;;;;20.05;47.35;100066.47;2235387;26;2362;-64
2024/04/17 00:33:58;;;;;;;;;;;;;;;20.05;46.96;100060.00;2234921;26;2184;-64
2024/04/17 00:34:59;;;;;;;;;;;;;;;20.05;47.35;100057.13;2233150;26;2278;-64
2024/04/17 00:36:01;;;;;;;;;;;;;;;20.04;47.33;100062.13;2242709;26;2351;-64
2024/04/17 00:37:02;;;;;;;;;;;;;;;20.05;47.61;100054.25;2237861;26;2191;-64
2024/04/17 00:38:04;;;;;;;;;;;;;;;20.05;47.04;100057.13;2238390;26;2167;-64
2024/04/17 00:39:05;;;;;;;;;;;;;;;20.04;47.05;100062.13;2234087;26;2254;-64
2024/04/17 00:40:07;;;;;;;;;;;;;;;20.04;47.10;100062.13;2233242;26;2297;-65
2024/04/17 00:41:08;;;;;;;;;;;;;;;20.04;47.00;100055.63;2240516;26;2198;-64
2024/04/17 00:42:10;;;;;;;;;;;;;;;20.04;47.33;100065.00;2235920;26;2273;-64
2024/04/17 00:43:11;;;;;;;;;;;;;;;20.03;47.38;100063.53;2239123;26;2330;-65
2024/04/17 00:44:13;;;;;;;;;;;;;;;20.03;47.67;100057.03;2233688;26;2660;-64
2024/04/17 00:45:15;;;;;;;;;;;;;;;20.01;47.31;100063.44;2234908;26;2279;-64
2024/04/17 00:46:16;;;;;;;;;;;;;;;20.04;47.61;100064.25;2245989;26;2401;-64
2024/04/17 00:47:18;;;;;;;;;;;;;;;20.02;47.40;100064.94;2237530;26;2218;-64
2024/04/17 00:48:19;;;;;;;;;;;;;;;20.02;47.21;100067.06;2234076;26;2273;-64
2024/04/17 00:49:21;;;;;;;;;;;;;;;20.03;47.77;100068.53;2237688;26;2259;-64
2024/04/17 00:50:22;;;;;;;;;;;;;;;20.02;47.71;100062.06;2244886;26;2400;-64
2024/04/17 00:51:24;;;;;;;;;;;;;;;20.01;47.67;100063.44;2226115;26;2267;-64
2024/04/17 00:52:26;;;;;;;;;;;;;;;20.01;47.54;100069.19;2234034;26;2419;-64
2024/04/17 00:53:30;;;;;;;;;;;;;;;20.01;47.69;100057.69;2238055;26;2235;-64
2024/04/17 00:54:32;;;;;;;;;;;;;;;20.01;47.88;100065.59;2234044;26;2592;-64
2024/04/17 00:55:33;;;;;;;;;;;;;;;20.00;48.08;100059.13;2235780;26;2393;-64
2024/04/17 00:56:35;;;;;;;;;;;;;;;20.01;48.07;100059.84;2238290;26;2287;-64
2024/04/17 00:57:38;;;;;;;;;;;;;;;20.00;47.57;100064.13;2238103;26;2271;-64
2024/04/17 00:58:40;;;;;;;;;;;;;;;19.99;47.96;100057.63;2235215;26;2692;-64
2024/04/17 00:59:42;;;;;;;;;;;;;;;19.99;48.00;100063.38;2237825;26;2344;-64
2024/04/17 01:00:44;;;;;;;;;;;;;;;20.00;47.58;100067.00;2234446;26;5959;-64
2024/04/17 01:01:45;;;;;;;;;;;;;;;19.98;47.83;100061.91;2236020;26;2360;-64
2024/04/17 01:02:47;;;;;;;;;;;;;;;20.00;48.10;100069.88;2237354;26;2390;-64
2024/04/17 01:03:48;;;;;;;;;;;;;;;19.99;47.93;100063.38;2243500;26;2222;-64
2024/04/17 01:04:50;;;;;;;;;;;;;;;19.98;47.92;100061.91;2233354;26;2312;-64
2024/04/17 01:05:51;;;;;;;;;;;;;;;19.99;48.04;100062.66;2235312;26;2368;-64
2024/04/17 01:06:53;;;;;;;;;;;;;;;19.99;48.01;100068.38;2235899;26;2348;-64
2024/04/17 01:07:55;;;;;;;;;;;;;;;19.99;48.01;100071.25;2233391;26;2302;-64
2024/04/17 01:08:56;;;;;;;;;;;;;;;19.98;47.80;100061.91;2234268;26;2242;-64
2024/04/17 01:09:58;;;;;;;;;;;;;;;19.98;48.01;100066.94;2232533;26;2234;-64
2024/04/17 01:11:00;;;;;;;;;;;;;;;19.97;47.60;100071.19;2235615;26;2308;-65
2024/04/17 01:12:02;;;;;;;;;;;;;;;19.98;47.85;100064.78;2236112;26;2456;-64
2024/04/17 01:13:03;;;;;;;;;;;;;;;19.95;48.20;100063.25;2232876;26;2368;-65
2024/04/17 01:14:05;;;;;;;;;;;;;;;19.96;48.44;100067.59;2237534;26;2453;-64
2024/04/17 01:15:08;;;;;;;;;;;;;;;19.96;47.96;100058.22;2231204;26;2532;-64
2024/04/17 01:16:10;;;;;;;;;;;;;;;19.96;47.90;100058.97;2239722;26;2313;-64
2024/04/17 01:17:11;;;;;;;;;;;;;;;19.95;47.78;100063.25;2237194;26;2329;-64
2024/04/17 01:18:14;;;;;;;;;;;;;;;19.96;48.02;100058.22;2237050;26;2203;-64
2024/04/17 01:19:16;;;;;;;;;;;;;;;19.95;47.81;100060.38;2234992;26;2194;-64
2024/04/17 01:20:18;;;;;;;;;;;;;;;19.94;48.29;100058.91;2236922;26;2283;-64
2024/04/17 01:21:19;;;;;;;;;;;;;;;19.95;47.83;100056.75;2237428;26;2276;-64
2024/04/17 01:22:21;;;;;;;;;;;;;;;19.95;48.02;100056.75;2236158;26;2287;-64
2024/04/17 01:23:22;;;;;;;;;;;;;;;19.94;48.00;100061.75;2229850;26;2358;-64
2024/04/17 01:24:24;;;;;;;;;;;;;;;19.94;48.30;100056.03;2235386;26;2269;-64
2024/04/17 01:25:25;;;;;;;;;;;;;;;19.94;48.35;100056.03;2236861;26;2285;-64
2024/04/17 01:26:27;;;;;;;;;;;;;;;19.94;47.98;100061.75;2235464;26;2409;-64
2024/04/17 01:27:28;;;;;;;;;;;;;;;19.94;48.09;100067.50;2231167;26;2301;-64
2024/04/17 01:28:30;;;;;;;;;;;;;;;19.94;47.75;100061.75;2226354;26;2453;-64
2024/04/17 01:29:31;;;;;;;;;;;;;;;19.93;48.30;100066.06;2233464;26;2214;-64
2024/04/17 01:30:33;;;;;;;;;;;;;;;19.94;48.06;100067.50;2230814;26;6038;-64
2024/04/17 01:31:35;;;;;;;;;;;;;;;19.94;48.38;100061.03;2232982;26;2242;-64
2024/04/17 01:32:37;;;;;;;;;;;;;;;19.94;48.25;100067.50;2232897;26;2254;-64
2024/04/17 01:33:39;;;;;;;;;;;;;;;19.93;48.29;100077.53;2238459;26;2588;-64
2024/04/17 01:34:40;;;;;;;;;;;;;;;19.92;47.96;100070.31;2233015;26;2329;-64
2024/04/17 01:35:42;;;;;;;;;;;;;;;19.94;47.84;100075.41;2235247;26;2066;-64
2024/04/17 01:36:43;;;;;;;;;;;;;;;19.93;47.69;100068.94;2234297;26;2166;-64
2024/04/17 01:37:44;;;;;;;;;;;;;;;19.93;47.62;100071.78;2229942;26;2297;-64
2024/04/17 01:38:46;;;;;;;;;;;;;;;19.93;48.11;100073.91;2229032;26;2357;-64
2024/04/17 01:39:48;;;;;;;;;;;;;;;19.92;47.95;100076.06;2230045;26;2266;-64
2024/04/17 01:40:49;;;;;;;;;;;;;;;19.92;48.40;100076.06;2232612;26;2250;-64
2024/04/17 01:41:51;;;;;;;;;;;;;;;19.92;48.42;100070.31;2240187;26;2204;-64
2024/04/17 01:42:52;;;;;;;;;;;;;;;19.92;47.98;100075.31;2238077;26;2191;-64
2024/04/17 01:43:54;;;;;;;;;;;;;;;19.93;48.09;100082.53;2244804;26;2223;-64
2024/04/17 01:44:55;;;;;;;;;;;;;;;19.93;47.63;100083.28;2237091;26;2307;-64
2024/04/17 01:45:57;;;;;;;;;;;;;;;19.92;48.03;100081.06;2235705;26;2368;-65
2024/04/17 01:46:58;;;;;;;;;;;;;;;19.92;48.27;100084.69;2232526;26;2302;-65
2024/04/17 01:48:00;;;;;;;;;;;;;;;19.91;47.75;100091.84;2235241;26;2240;-65
2024/04/17 01:49:02;;;;;;;;;;;;;;;19.91;47.89;100086.09;2236841;26;2495;-64
2024/04/17 01:50:03;;;;;;;;;;;;;;;19.90;47.93;100084.59;2235079;26;2203;-64
2024/04/17 01:51:05;;;;;;;;;;;;;;;19.91;47.74;100091.09;2238918;26;2246;-64
2024/04/17 01:52:06;;;;;;;;;;;;;;;19.91;48.10;100088.22;2231593;26;2293;-64
2024/04/17 01:53:08;;;;;;;;;;;;;;;19.91;47.84;100088.22;2236186;26;2354;-64
2024/04/17 01:54:09;;;;;;;;;;;;;;;19.90;47.76;100090.34;2236084;26;2297;-64
2024/04/17 01:55:11;;;;;;;;;;;;;;;19.90;48.20;100084.59;2233564;26;2195;-64
2024/04/17 01:56:12;;;;;;;;;;;;;;;19.91;47.76;100091.84;2236690;26;2160;-64
2024/04/17 01:57:14;;;;;;;;;;;;;;;19.90;47.94;100093.22;2236102;26;2378;-64
2024/04/17 01:58:15;;;;;;;;;;;;;;;19.90;47.65;100101.84;2235738;26;2282;-64
2024/04/17 01:59:17;;;;;;;;;;;;;;;19.90;48.02;100096.09;2236921;26;2203;-64
2024/04/17 02:00:18;;;;;;;;;;;;;;;19.90;48.07;100093.22;2231242;26;5931;-64
2024/04/17 02:01:20;;;;;;;;;;;;;;;19.89;48.02;100091.75;2235199;26;2469;-65
2024/04/17 02:02:21;;;;;;;;;;;;;;;19.88;47.97;100093.91;2237417;26;2271;-64
2024/04/17 02:03:23;;;;;;;;;;;;;;;19.89;47.61;100094.63;2235222;26;2283;-64
2024/04/17 02:04:24;;;;;;;;;;;;;;;19.89;47.97;100094.63;2234962;26;2374;-64
2024/04/17 02:05:26;;;;;;;;;;;;;;;19.89;47.71;100094.63;2230712;26;2431;-64
2024/04/17 02:06:27;;;;;;;;;;;;;;;19.88;48.12;100087.41;2232913;26;2589;-64
2024/04/17 02:07:29;;;;;;;;;;;;;;;19.88;47.72;100093.16;2233840;26;2201;-64
2024/04/17 02:08:30;;;;;;;;;;;;;;;19.88;47.64;100096.03;2234201;26;2601;-64
2024/04/17 02:09:32;;;;;;;;;;;;;;;19.88;48.07;100090.28;2237687;26;2243;-64
2024/04/17 02:10:33;;;;;;;;;;;;;;;19.88;48.25;100087.41;2236038;26;2358;-64
2024/04/17 02:11:34;;;;;;;;;;;;;;;19.87;48.15;100088.81;2235972;26;2378;-64
2024/04/17 02:12:36;;;;;;;;;;;;;;;19.87;47.83;100085.94;2237525;26;2325;-64
2024/04/17 02:13:37;;;;;;;;;;;;;;;19.86;47.87;100084.47;2237410;26;2170;-64
2024/04/17 02:14:39;;;;;;;;;;;;;;;19.86;47.67;100090.22;2236292;26;2430;-65
2024/04/17 02:15:40;;;;;;;;;;;;;;;19.86;47.60;100090.22;2232160;26;2332;-64
2024/04/17 02:16:42;;;;;;;;;;;;;;;19.85;47.92;100091.59;2236486;26;2246;-65
2024/04/17 02:17:43;;;;;;;;;;;;;;;19.86;47.67;100093.09;2237581;26;2248;-64
2024/04/17 02:18:45;;;;;;;;;;;;;;;19.86;48.23;100090.22;2234600;26;2363;-64
2024/04/17 02:19:46;;;;;;;;;;;;;;;19.86;48.32;100090.22;2235785;26;2210;-64
2024/04/17 02:20:48;;;;;;;;;;;;;;;19.85;47.83;100094.47;2234430;26;2192;-64
2024/04/17 02:21:50;;;;;;;;;;;;;;;19.86;47.48;100107.47;2233150;26;2283;-64
2024/04/17 02:22:51;;;;;;;;;;;;;;;19.86;48.24;100098.84;2234328;26;2267;-64
2024/04/17 02:23:53;;;;;;;;;;;;;;;19.84;47.70;100099.50;2235660;26;2415;-65
2024/04/17 02:24:54;;;;;;;;;;;;;;;19.86;47.61;100101.72;2232485;26;2322;-64
2024/04/17 02:25:56;;;;;;;;;;;;;;;19.85;48.00;100111.72;2235376;26;2455;-64
2024/04/17 02:26:57;;;;;;;;;;;;;;;19.83;48.13;100103.75;2235699;26;2274;-64
2024/04/17 02:27:59;;;;;;;;;;;;;;;19.85;47.61;100108.84;2232766;26;2153;-64
2024/04/17 02:29:00;;;;;;;;;;;;;;;19.83;47.63;100103.75;2232931;26;2217;-64
2024/04/17 02:30:02;;;;;;;;;;;;;;;19.83;47.97;100098.00;2231813;26;7123;-64
2024/04/17 02:31:03;;;;;;;;;;;;;;;19.84;47.86;100098.78;2250820;26;2348;-64
2024/04/17 02:32:05;;;;;;;;;;;;;;;19.83;47.75;100103.75;2250739;26;2203;-64
2024/04/17 02:33:06;;;;;;;;;;;;;;;19.83;47.63;100106.63;2234712;26;2249;-64
2024/04/17 02:34:08;;;;;;;;;;;;;;;19.84;47.81;100104.50;2249890;26;2226;-64
2024/04/17 02:35:09;;;;;;;;;;;;;;;19.84;47.77;100099.50;2248818;26;2384;-66
2024/04/17 02:36:12;;;;;;;;;;;;;;;19.86;47.54;100101.72;2232898;26;2449;-64
2024/04/17 02:37:13;;;;;;;;;;;;;;;19.86;47.63;100101.72;2236040;26;2192;-64
2024/04/17 02:38:15;;;;;;;;;;;;;;;19.88;47.26;100098.91;2236621;26;2173;-64
2024/04/17 02:39:17;;;;;;;;;;;;;;;19.88;47.12;100099.66;2233780;26;2293;-64
2024/04/17 02:40:18;;;;;;;;;;;;;;;19.90;47.43;100101.84;2237295;26;2551;-64
2024/04/17 02:41:20;;;;;;;;;;;;;;;19.91;47.05;100103.34;2236834;26;2237;-64
2024/04/17 02:42:21;;;;;;;;;;;;;;;19.92;47.44;100096.16;2236585;26;2198;-64
2024/04/17 02:43:23;;;;;;;;;;;;;;;19.93;47.43;100100.53;2241795;26;2249;-64
2024/04/17 02:44:24;;;;;;;;;;;;;;;19.95;47.74;100103.47;2234747;26;2244;-64
2024/04/17 02:45:26;;;;;;;;;;;;;;;19.96;47.12;100110.69;2237096;26;2291;-64
2024/04/17 02:46:27;;;;;;;;;;;;;;;19.97;47.44;100112.16;2239075;26;2163;-64
2024/04/17 02:47:30;;;;;;;;;;;;;;;19.97;47.57;100103.53;2235647;26;2434;-65
2024/04/17 02:48:32;;;;;;;;;;;;;;;19.99;47.44;100102.88;2235026;26;2467;-65
2024/04/17 02:49:33;;;;;;;;;;;;;;;19.99;47.61;100108.63;2236670;26;2457;-64
2024/04/17 02:50:41;;;;;;;;;;;;;;;19.98;47.44;100107.88;2235998;26;2374;-64
2024/04/17 02:51:42;;;;;;;;;;;;;;;20.00;47.55;100104.38;2229222;26;2462;-65
2024/04/17 02:52:44;;;;;;;;;;;;;;;19.99;47.85;100106.47;2237149;26;2268;-64
2024/04/17 02:53:45;;;;;;;;;;;;;;;19.99;47.47;100109.34;2233889;26;2293;-65
2024/04/17 02:54:47;;;;;;;;;;;;;;;19.99;47.71;100115.09;2235369;26;2384;-64
2024/04/17 02:55:48;;;;;;;;;;;;;;;20.00;47.87;100113.00;2236349;26;2361;-64
2024/04/17 02:56:50;;;;;;;;;;;;;;;20.00;47.47;100116.59;2237457;26;2178;-64
2024/04/17 02:57:51;;;;;;;;;;;;;;;19.99;47.94;100115.09;2233968;26;2295;-64
2024/04/17 02:58:53;;;;;;;;;;;;;;;19.99;48.09;100115.09;2231944;26;2298;-64
2024/04/17 02:59:54;;;;;;;;;;;;;;;20.01;47.65;100118.06;2236618;26;2320;-64
2024/04/17 03:00:56;;;;;;;;;;;;;;;20.02;47.38;100121.66;2233622;26;6053;-64
2024/04/17 03:01:57;;;;;;;;;;;;;;;20.01;47.61;100112.31;2235472;26;2179;-64
2024/04/17 03:03:03;;;;;;;;;;;;;;;20.02;48.01;100115.91;2233042;26;2267;-65
2024/04/17 03:04:05;;;;;;;;;;;;;;;20.03;47.50;100114.53;2235424;26;2543;-64
2024/04/17 03:05:07;;;;;;;;;;;;;;;20.02;47.59;100119.53;2228625;26;2266;-64
2024/04/17 03:06:08;;;;;;;;;;;;;;;20.02;48.04;100119.53;2237590;26;2135;-64
2024/04/17 03:07:10;;;;;;;;;;;;;;;20.04;48.05;100122.50;2234702;26;2248;-64
2024/04/17 03:08:11;;;;;;;;;;;;;;;20.03;48.21;100123.88;2236219;26;2206;-60
2024/04/17 03:09:13;;;;;;;;;;;;;;;20.03;47.93;100118.13;2236901;26;2391;-62
2024/04/17 03:10:14;;;;;;;;;;;;;;;20.05;47.79;100123.94;2235598;26;2246;-68
2024/04/17 03:11:16;;;;;;;;;;;;;;;20.06;48.26;100131.16;2232549;26;2395;-60
2024/04/17 03:12:17;;;;;;;;;;;;;;;20.06;48.22;100121.81;2237884;26;2153;-60
2024/04/17 03:13:19;;;;;;;;;;;;;;;20.06;48.67;100113.19;2235418;26;2274;-60
2024/04/17 03:14:21;;;;;;;;;;;;;;;20.06;48.50;100125.41;2235782;26;2210;-60
2024/04/17 03:15:22;;;;;;;;;;;;;;;20.06;48.16;100131.16;2234748;26;2244;-60
2024/04/17 03:16:24;;;;;;;;;;;;;;;20.06;48.45;100125.41;2237010;26;2397;-60
2024/04/17 03:17:25;;;;;;;;;;;;;;;20.06;48.15;100122.53;2234611;26;2360;-59
2024/04/17 03:18:27;;;;;;;;;;;;;;;20.06;49.07;100125.41;2234382;26;2357;-60
2024/04/17 03:19:28;;;;;;;;;;;;;;;20.08;48.41;100127.63;2237330;26;2343;-60
2024/04/17 03:20:30;;;;;;;;;;;;;;;20.08;48.96;100128.34;2234408;26;2299;-59
2024/04/17 03:21:32;;;;;;;;;;;;;;;20.06;48.30;100119.66;2232652;26;2279;-60
2024/04/17 03:22:33;;;;;;;;;;;;;;;20.08;48.41;100125.47;2237284;26;2249;-60
2024/04/17 03:23:35;;;;;;;;;;;;;;;20.08;48.23;100124.75;2240195;26;2180;-60
2024/04/17 03:24:36;;;;;;;;;;;;;;;20.07;47.80;100124.03;2236119;26;2316;-60
2024/04/17 03:25:38;;;;;;;;;;;;;;;20.07;48.32;100121.16;2234971;26;2289;-60
2024/04/17 03:26:39;;;;;;;;;;;;;;;20.09;48.37;100129.13;2233062;26;2274;-59
2024/04/17 03:27:41;;;;;;;;;;;;;;;20.08;48.24;100134.09;2236847;26;2265;-60
2024/04/17 03:28:42;;;;;;;;;;;;;;;20.08;48.14;100125.47;2237907;26;2484;-60
2024/04/17 03:29:45;;;;;;;;;;;;;;;20.08;48.67;100128.34;2233610;26;2377;-60
2024/04/17 03:30:46;;;;;;;;;;;;;;;20.09;48.25;100129.84;2233157;26;5870;-60
2024/04/17 03:31:47;;;;;;;;;;;;;;;20.09;48.03;100129.13;2228987;26;2233;-60
2024/04/17 03:32:49;;;;;;;;;;;;;;;20.09;48.17;100129.84;2236330;26;2284;-59
2024/04/17 03:33:50;;;;;;;;;;;;;;;20.12;48.29;100127.06;2234794;26;2329;-60
2024/04/17 03:34:52;;;;;;;;;;;;;;;20.11;48.83;100125.56;2236406;26;2346;-60
2024/04/17 03:35:55;;;;;;;;;;;;;;;20.11;48.20;100125.56;2236417;26;2160;-60
2024/04/17 03:36:56;;;;;;;;;;;;;;;20.12;48.90;100127.78;2234774;26;2391;-60
2024/04/17 03:37:58;;;;;;;;;;;;;;;20.11;48.45;100125.56;2241843;26;2163;-60
2024/04/17 03:38:59;;;;;;;;;;;;;;;20.12;48.19;100132.78;2236261;26;2199;-60
2024/04/17 03:40:04;;;;;;;;;;;;;;;20.13;48.36;100134.25;2236817;26;2308;-60
2024/04/17 03:41:05;;;;;;;;;;;;;;;20.12;48.35;100133.53;2240722;26;2139;-60
2024/04/17 03:42:07;;;;;;;;;;;;;;;20.13;48.19;100134.25;2237864;26;2165;-60
2024/04/17 03:43:08;;;;;;;;;;;;;;;20.13;48.36;100134.25;2237823;26;2493;-60
2024/04/17 03:44:10;;;;;;;;;;;;;;;20.13;48.41;100134.25;2232242;26;2218;-60
2024/04/17 03:45:11;;;;;;;;;;;;;;;20.13;48.19;100134.25;2238084;26;2287;-60
2024/04/17 03:46:13;;;;;;;;;;;;;;;20.13;48.89;100134.25;2237368;26;2365;-60
2024/04/17 03:47:14;;;;;;;;;;;;;;;20.14;48.50;100141.50;2236772;26;2559;-60
2024/04/17 03:48:16;;;;;;;;;;;;;;;20.12;48.58;100139.28;2236541;26;2305;-60
2024/04/17 03:49:17;;;;;;;;;;;;;;;20.13;48.38;100140.00;2244615;26;2141;-60
2024/04/17 03:50:19;;;;;;;;;;;;;;;20.14;48.45;100138.63;2236342;26;2355;-60
2024/04/17 03:51:20;;;;;;;;;;;;;;;20.13;48.52;100140.00;2238572;26;2295;-60
2024/04/17 03:52:22;;;;;;;;;;;;;;;20.13;48.34;100140.00;2235426;26;2225;-60
2024/04/17 03:53:25;;;;;;;;;;;;;;;20.13;48.42;100145.75;2236981;26;2249;-60
2024/04/17 03:54:27;;;;;;;;;;;;;;;20.12;48.74;100147.16;2238271;26;2164;-59
2024/04/17 03:55:28;;;;;;;;;;;;;;;20.13;48.45;100145.75;2236458;26;2425;-60
2024/04/17 03:56:29;;;;;;;;;;;;;;;20.13;48.64;100148.63;2234106;26;2270;-60
2024/04/17 03:57:31;;;;;;;;;;;;;;;20.14;48.44;100153.00;2236378;26;2278;-60
2024/04/17 03:58:32;;;;;;;;;;;;;;;20.13;48.30;100157.97;2233770;26;2278;-59
2024/04/17 03:59:34;;;;;;;;;;;;;;;20.14;48.49;100153.00;2232784;26;2529;-60
2024/04/17 04:00:35;;;;;;;;;;;;;;;20.13;48.90;100157.97;2235692;26;6055;-60
2024/04/17 04:01:37;;;;;;;;;;;;;;;20.14;48.55;100158.75;2238927;26;2255;-60
2024/04/17 04:02:38;;;;;;;;;;;;;;;20.14;48.40;100159.47;2236472;26;2242;-60
2024/04/17 04:03:40;;;;;;;;;;;;;;;20.15;48.70;100163.06;2235128;26;2539;-62
2024/04/17 04:04:42;;;;;;;;;;;;;;;20.15;48.52;100165.94;2230655;26;2185;-60
2024/04/17 04:05:44;;;;;;;;;;;;;;;20.14;49.00;100155.88;2236398;26;2333;-60
2024/04/17 04:06:45;;;;;;;;;;;;;;;20.15;48.65;100154.44;2237757;26;2006;-60
2024/04/17 04:07:46;;;;;;;;;;;;;;;20.16;48.29;100155.91;2236115;26;2147;-59
2024/04/17 04:08:48;;;;;;;;;;;;;;;20.17;48.63;100157.41;2237989;26;2171;-60
2024/04/17 04:09:50;;;;;;;;;;;;;;;20.16;48.86;100168.16;2237804;26;2322;-60
2024/04/17 04:10:51;;;;;;;;;;;;;;;20.16;48.80;100158.78;2236967;26;2323;-60
2024/04/17 04:11:53;;;;;;;;;;;;;;;20.16;48.51;100161.66;2236394;26;2443;-60
2024/04/17 04:12:54;;;;;;;;;;;;;;;20.17;48.99;100163.16;2235941;26;2525;-60
2024/04/17 04:13:56;;;;;;;;;;;;;;;20.17;48.88;100168.91;2238075;26;2061;-60
2024/04/17 04:14:57;;;;;;;;;;;;;;;20.17;48.96;100168.91;2234855;26;2675;-60
2024/04/17 04:15:59;;;;;;;;;;;;;;;20.17;48.79;100163.88;2233894;26;2167;-60
2024/04/17 04:17:00;;;;;;;;;;;;;;;20.17;48.71;100168.91;2234343;26;2388;-60
2024/04/17 04:18:02;;;;;;;;;;;;;;;20.16;48.40;100170.28;2235514;26;2342;-60
2024/04/17 04:19:03;;;;;;;;;;;;;;;20.16;48.28;100158.78;2231865;26;2289;-60
2024/04/17 04:20:05;;;;;;;;;;;;;;;20.17;48.29;100160.28;2239387;26;2198;-60
2024/04/17 04:21:07;;;;;;;;;;;;;;;20.16;48.78;100165.31;2236572;26;2324;-60
2024/04/17 04:22:08;;;;;;;;;;;;;;;20.17;48.47;100171.78;2233885;26;2227;-60
2024/04/17 04:23:09;;;;;;;;;;;;;;;20.17;48.82;100163.16;2235393;26;2254;-59
2024/04/17 04:24:11;;;;;;;;;;;;;;;20.16;48.45;100167.41;2235076;26;2421;-60
2024/04/17 04:25:12;;;;;;;;;;;;;;;20.17;48.69;100166.03;2237023;26;2567;-60
2024/04/17 04:26:14;;;;;;;;;;;;;;;20.18;48.71;100170.38;2235321;26;2343;-60
2024/04/17 04:27:15;;;;;;;;;;;;;;;20.18;48.06;100170.38;2235780;26;2499;-60
2024/04/17 04:28:17;;;;;;;;;;;;;;;20.19;48.51;100166.09;2235885;26;2207;-59
2024/04/17 04:29:19;;;;;;;;;;;;;;;20.18;48.62;100161.75;2236928;26;2074;-60
2024/04/17 04:30:20;;;;;;;;;;;;;;;20.19;49.28;100163.97;2236294;26;5935;-60
2024/04/17 04:31:24;;;;;;;;;;;;;;;20.19;49.06;100166.09;2236366;26;2563;-60
2024/04/17 04:32:26;;;;;;;;;;;;;;;20.18;48.92;100171.13;2233504;26;2364;-60
2024/04/17 04:33:27;;;;;;;;;;;;;;;20.21;48.53;100174.81;2237340;26;2230;-59
2024/04/17 04:34:29;;;;;;;;;;;;;;;20.21;48.68;100174.81;2240188;26;2282;-60
2024/04/17 04:35:30;;;;;;;;;;;;;;;20.21;48.90;100171.94;2234889;26;2260;-58
2024/04/17 04:36:32;;;;;;;;;;;;;;;20.20;48.40;100168.31;2235184;26;2270;-60
2024/04/17 04:37:33;;;;;;;;;;;;;;;20.21;48.66;100169.06;2226081;26;2144;-60
2024/04/17 04:38:35;;;;;;;;;;;;;;;20.22;48.84;100170.50;2232623;26;2280;-60
2024/04/17 04:39:36;;;;;;;;;;;;;;;20.21;49.23;100180.56;2230512;26;2241;-60
2024/04/17 04:40:38;;;;;;;;;;;;;;;20.22;48.99;100176.25;2236593;26;2445;-60
2024/04/17 04:41:39;;;;;;;;;;;;;;;20.21;49.23;100187.03;2234108;26;2441;-61
2024/04/17 04:42:41;;;;;;;;;;;;;;;20.16;48.64;100182.53;2233583;26;2401;-60
2024/04/17 04:43:42;;;;;;;;;;;;;;;19.53;46.47;100191.63;2236491;26;2245;-60
2024/04/17 04:44:44;;;;;;;;;;;;;;;19.48;47.42;100190.72;2235226;26;2382;-60
2024/04/17 04:45:46;;;;;;;;;;;;;;;19.64;47.96;100194.22;2227379;26;2633;-62
2024/04/17 04:46:47;;;;;;;;;;;;;;;19.81;48.39;100197.75;2233196;26;2292;-61
2024/04/17 04:47:49;;;;;;;;;;;;;;;19.95;48.00;100201.19;2235263;26;2252;-62
2024/04/17 04:48:51;;;;;;;;;;;;;;;19.98;48.90;100199.84;2233448;26;2504;-61
2024/04/17 04:49:52;;;;;;;;;;;;;;;20.01;48.15;100192.75;2234125;26;2313;-61
2024/04/17 04:50:54;;;;;;;;;;;;;;;20.05;48.54;100192.91;2236158;26;2512;-61
2024/04/17 04:51:55;;;;;;;;;;;;;;;20.06;48.00;100194.38;2230735;26;2277;-61
2024/04/17 04:52:57;;;;;;;;;;;;;;;20.08;47.76;100205.22;2235044;26;2416;-61
2024/04/17 04:53:58;;;;;;;;;;;;;;;20.08;48.32;100194.47;2234456;26;2564;-61
2024/04/17 04:55:00;;;;;;;;;;;;;;;20.09;48.67;100201.69;2235799;26;2418;-62
2024/04/17 04:56:05;;;;;;;;;;;;;;;20.11;48.42;100214.66;2233921;26;2199;-61
2024/04/17 04:57:06;;;;;;;;;;;;;;;20.12;48.46;100208.25;2232970;26;2069;-61
2024/04/17 04:58:08;;;;;;;;;;;;;;;20.13;48.27;100209.72;2236349;26;2199;-61
2024/04/17 04:59:09;;;;;;;;;;;;;;;20.13;48.90;100209.72;2236677;26;2050;-61
2024/04/17 05:00:11;;;;;;;;;;;;;;;20.15;48.40;100217.69;2226571;26;5946;-61
2024/04/17 05:01:13;;;;;;;;;;;;;;;20.15;47.80;100223.44;2220845;26;2111;-61
2024/04/17 05:02:14;;;;;;;;;;;;;;;20.17;48.11;100220.66;2230833;26;2337;-61
2024/04/17 05:03:16;;;;;;;;;;;;;;;20.18;48.13;100216.34;2229033;26;2203;-61
2024/04/17 05:04:17;;;;;;;;;;;;;;;20.18;48.26;100222.09;2221841;26;2114;-61
2024/04/17 05:05:19;;;;;;;;;;;;;;;20.19;47.97;100217.84;2219955;26;2057;-62
2024/04/17 05:06:20;;;;;;;;;;;;;;;20.19;48.88;100226.47;2221681;26;2172;-61
2024/04/17 05:07:22;;;;;;;;;;;;;;;20.21;48.46;100218.66;2219838;26;2174;-61
2024/04/17 05:08:24;;;;;;;;;;;;;;;20.21;48.21;100223.69;2224075;26;2378;-61
2024/04/17 05:09:26;;;;;;;;;;;;;;;20.21;48.84;100227.28;2221258;26;2115;-61
2024/04/17 05:10:28;;;;;;;;;;;;;;;20.22;48.44;100225.13;2220508;26;2087;-61
2024/04/17 05:11:29;;;;;;;;;;;;;;;20.21;48.55;100220.81;2218991;26;2103;-61
2024/04/17 05:12:31;;;;;;;;;;;;;;;20.22;48.87;100222.25;2228606;26;2131;-61
2024/04/17 05:13:32;;;;;;;;;;;;;;;20.21;48.50;100226.56;2219872;26;2153;-61
2024/04/17 05:14:34;;;;;;;;;;;;;;;20.22;48.70;100230.88;2221965;26;2234;-61
2024/04/17 05:15:35;;;;;;;;;;;;;;;20.21;48.89;100230.16;2226413;26;2107;-61
2024/04/17 05:16:37;;;;;;;;;;;;;;;20.20;48.55;100222.94;2225219;26;2513;-61
2024/04/17 05:17:39;;;;;;;;;;;;;;;20.22;48.98;100233.75;2228867;26;2246;-61
2024/04/17 05:18:40;;;;;;;;;;;;;;;20.22;48.52;100228.00;2221916;26;2215;-61
2024/04/17 05:19:42;;;;;;;;;;;;;;;20.21;49.13;100233.03;2221359;26;2150;-61
2024/04/17 05:20:43;;;;;;;;;;;;;;;20.22;48.70;100228.00;2220427;26;2303;-61